createdAt,value
2018-12-05T00:01:35.267Z,100.00
2018-12-05T00:04:04.530Z,100.00
2018-12-05T00:06:33.676Z,100.00
2018-12-05T00:09:03.032Z,100.00
2018-12-05T00:11:32.141Z,100.00
2018-12-05T00:14:01.324Z,100.00
2018-12-05T00:16:31.079Z,100.00
2018-12-05T00:19:00.193Z,100.00
2018-12-05T00:21:29.305Z,100.00
2018-12-05T00:23:58.417Z,100.00
2018-12-05T00:26:27.565Z,100.00
2018-12-05T00:28:56.806Z,100.00
2018-12-05T00:31:26.528Z,100.00
2018-12-05T00:33:55.716Z,100.00
2018-12-05T00:36:24.889Z,100.00
2018-12-05T00:38:54.675Z,100.00
2018-12-05T00:41:26.733Z,100.00
2018-12-05T00:43:55.844Z,100.00
2018-12-05T00:46:25.013Z,100.00
2018-12-05T00:48:54.271Z,100.00
2018-12-05T00:51:23.453Z,100.00
2018-12-05T00:53:52.609Z,100.00
2018-12-05T00:56:21.769Z,100.00
2018-12-05T00:58:51.528Z,100.00
2018-12-05T01:04:03.800Z,100.00
2018-12-05T01:06:32.976Z,100.00
2018-12-05T01:09:02.162Z,100.00
2018-12-05T01:11:31.269Z,100.00
2018-12-05T01:14:00.512Z,100.00
2018-12-05T01:16:30.456Z,100.00
2018-12-05T01:18:59.672Z,100.00
2018-12-05T01:21:29.632Z,100.00
2018-12-05T01:23:59.016Z,100.00
2018-12-05T01:26:28.657Z,100.00
2018-12-05T01:28:58.240Z,100.00
2018-12-05T01:31:27.500Z,100.00
2018-12-05T01:33:58.840Z,100.00
2018-12-05T01:36:28.131Z,100.00
2018-12-05T01:38:57.568Z,100.00
2018-12-05T01:41:26.901Z,100.00
2018-12-05T01:43:56.346Z,100.00
2018-12-05T01:46:25.546Z,100.00
2018-12-05T01:48:54.868Z,100.00
2018-12-05T01:51:24.141Z,100.00
2018-12-05T01:53:53.431Z,100.00
2018-12-05T01:56:22.928Z,100.00
2018-12-05T01:58:52.433Z,100.00
2018-12-05T02:01:21.647Z,100.00
2018-12-05T02:03:51.194Z,100.00
2018-12-05T02:06:23.149Z,100.00
2018-12-05T02:08:53.033Z,100.00
2018-12-05T02:11:22.381Z,100.00
2018-12-05T02:13:52.516Z,100.00
2018-12-05T02:16:21.720Z,100.00
2018-12-05T02:18:50.865Z,100.00
2018-12-05T02:21:20.382Z,100.00
2018-12-05T02:23:49.529Z,100.00
2018-12-05T02:26:18.709Z,100.00
2018-12-05T02:28:47.919Z,100.00
2018-12-05T02:31:17.598Z,100.00
2018-12-05T02:33:46.878Z,100.00
2018-12-05T02:36:17.107Z,100.00
2018-12-05T02:38:46.562Z,100.00
2018-12-05T02:41:16.469Z,100.00
2018-12-05T02:43:45.831Z,100.00
2018-12-05T02:46:15.195Z,100.00
2018-12-05T02:48:44.812Z,100.00
2018-12-05T02:51:14.744Z,100.00
2018-12-05T02:53:43.940Z,100.00
2018-12-05T02:56:13.131Z,100.00
2018-12-05T02:58:42.518Z,100.00
2018-12-05T03:01:11.739Z,100.00
2018-12-05T03:03:41.239Z,100.00
2018-12-05T03:06:10.614Z,100.00
2018-12-05T03:08:39.738Z,100.00
2018-12-05T03:11:09.307Z,100.00
2018-12-05T03:13:38.561Z,100.00
2018-12-05T03:16:08.365Z,100.00
2018-12-05T03:18:37.785Z,100.00
2018-12-05T03:21:06.960Z,100.00
2018-12-05T03:23:36.084Z,100.00
2018-12-05T03:26:05.420Z,100.00
2018-12-05T03:28:34.572Z,100.00
2018-12-05T03:31:03.914Z,100.00
2018-12-05T03:33:33.871Z,100.00
2018-12-05T03:36:03.208Z,100.00
2018-12-05T03:38:32.987Z,100.00
2018-12-05T03:41:02.684Z,100.00
2018-12-05T03:43:31.817Z,100.00
2018-12-05T03:46:01.063Z,100.00
2018-12-05T03:48:30.353Z,100.00
2018-12-05T03:51:12.736Z,100.00
2018-12-05T03:53:42.308Z,100.00
2018-12-05T03:56:12.248Z,100.00
2018-12-05T03:58:41.381Z,100.00
2018-12-05T04:01:11.455Z,100.00
2018-12-05T04:03:40.613Z,100.00
2018-12-05T04:06:09.906Z,100.00
2018-12-05T04:08:40.284Z,100.00
2018-12-05T04:11:11.332Z,100.00
2018-12-05T04:13:40.581Z,100.00
2018-12-05T04:16:09.875Z,100.00
2018-12-05T04:18:39.082Z,100.00
2018-12-05T04:21:08.887Z,100.00
2018-12-05T04:23:38.144Z,100.00
2018-12-05T04:26:07.477Z,100.00
2018-12-05T04:28:37.035Z,100.00
2018-12-05T04:31:06.262Z,100.00
2018-12-05T04:33:35.540Z,100.00
2018-12-05T04:36:04.784Z,100.00
2018-12-05T04:38:34.045Z,100.00
2018-12-05T04:41:03.329Z,100.00
2018-12-05T04:43:33.051Z,100.00
2018-12-05T04:46:02.298Z,100.00
2018-12-05T04:48:31.743Z,100.00
2018-12-05T04:51:00.914Z,100.00
2018-12-05T04:53:30.415Z,100.00
2018-12-05T04:55:59.560Z,100.00
2018-12-05T04:58:29.500Z,100.00
2018-12-05T05:00:58.636Z,100.00
2018-12-05T05:03:27.771Z,100.00
2018-12-05T05:05:57.028Z,100.00
2018-12-05T05:08:26.224Z,100.00
2018-12-05T05:10:55.579Z,100.00
2018-12-05T05:13:24.848Z,100.00
2018-12-05T05:15:53.995Z,100.00
2018-12-05T05:18:23.321Z,100.00
2018-12-05T05:20:52.695Z,100.00
2018-12-05T05:23:21.998Z,100.00
2018-12-05T05:25:51.333Z,100.00
2018-12-05T05:28:20.582Z,100.00
2018-12-05T05:30:50.132Z,100.00
2018-12-05T05:33:19.308Z,100.00
2018-12-05T05:35:49.242Z,100.00
2018-12-05T05:38:18.444Z,100.00
2018-12-05T05:40:48.272Z,100.00
2018-12-05T05:43:17.485Z,100.00
2018-12-05T05:45:46.832Z,100.00
2018-12-05T05:48:16.265Z,100.00
2018-12-05T05:50:45.522Z,100.00
2018-12-05T05:53:15.017Z,100.00
2018-12-05T05:55:44.196Z,100.00
2018-12-05T05:58:13.330Z,100.00
2018-12-05T06:00:42.616Z,100.00
2018-12-05T06:03:12.020Z,100.00
2018-12-05T06:05:41.611Z,100.00
2018-12-05T06:08:10.818Z,100.00
2018-12-05T06:10:40.048Z,100.00
2018-12-05T06:13:09.205Z,100.00
2018-12-05T06:15:38.440Z,100.00
2018-12-05T06:18:07.675Z,100.00
2018-12-05T06:20:37.000Z,100.00
2018-12-05T06:23:06.573Z,100.00
2018-12-05T06:25:36.194Z,100.00
2018-12-05T06:28:05.482Z,100.00
2018-12-05T06:30:34.623Z,100.00
2018-12-05T06:33:03.768Z,100.00
2018-12-05T06:35:32.912Z,100.00
2018-12-05T06:38:02.449Z,100.00
2018-12-05T06:40:33.507Z,100.00
2018-12-05T06:43:02.652Z,100.00
2018-12-05T06:45:31.776Z,100.00
2018-12-05T06:48:01.601Z,100.00
2018-12-05T06:50:30.804Z,100.00
2018-12-05T06:53:00.084Z,100.00
2018-12-05T06:55:29.227Z,100.00
2018-12-05T06:57:58.704Z,100.00
2018-12-05T07:00:27.932Z,100.00
2018-12-05T07:02:57.892Z,100.00
2018-12-05T07:05:27.020Z,100.00
2018-12-05T07:07:56.189Z,100.00
2018-12-05T07:10:25.325Z,100.00
2018-12-05T07:12:54.449Z,100.00
2018-12-05T07:15:23.744Z,100.00
2018-12-05T07:17:53.031Z,100.00
2018-12-05T07:20:22.205Z,100.00
2018-12-05T07:22:51.455Z,100.00
2018-12-05T07:25:20.723Z,100.00
2018-12-05T07:27:50.344Z,100.00
2018-12-05T07:30:19.589Z,100.00
2018-12-05T07:32:48.796Z,100.00
2018-12-05T07:35:18.256Z,100.00
2018-12-05T07:37:47.595Z,100.00
2018-12-05T07:40:19.391Z,100.00
2018-12-05T07:42:49.001Z,100.00
2018-12-05T07:45:18.202Z,100.00
2018-12-05T07:47:47.325Z,100.00
2018-12-05T07:50:16.528Z,100.00
2018-12-05T07:52:47.146Z,100.00
2018-12-05T07:55:16.288Z,100.00
2018-12-05T07:57:45.936Z,100.00
2018-12-05T08:00:15.253Z,100.00
2018-12-05T08:02:44.548Z,100.00
2018-12-05T08:05:13.972Z,100.00
2018-12-05T08:07:43.215Z,100.00
2018-12-05T08:10:12.425Z,100.00
2018-12-05T08:12:41.549Z,100.00
2018-12-05T08:15:10.816Z,100.00
2018-12-05T08:17:40.028Z,100.00
2018-12-05T08:20:09.340Z,100.00
2018-12-05T08:22:38.569Z,100.00
2018-12-05T08:25:07.828Z,100.00
2018-12-05T08:27:37.040Z,100.00
2018-12-05T08:30:07.056Z,100.00
2018-12-05T08:32:36.287Z,100.00
2018-12-05T08:35:06.215Z,100.00
2018-12-05T08:37:35.473Z,100.00
2018-12-05T08:40:06.428Z,100.00
2018-12-05T08:42:35.553Z,100.00
2018-12-05T08:45:04.917Z,100.00
2018-12-05T08:47:34.043Z,100.00
2018-12-05T08:50:03.328Z,100.00
2018-12-05T08:52:32.520Z,100.00
2018-12-05T08:55:01.736Z,100.00
2018-12-05T08:57:31.007Z,100.00
2018-12-05T09:00:00.210Z,100.00
2018-12-05T09:02:29.417Z,100.00
2018-12-05T09:04:58.552Z,100.00
2018-12-05T09:07:27.745Z,100.00
2018-12-05T09:09:57.220Z,99.97
2018-12-05T09:12:26.550Z,96.75
2018-12-05T09:14:55.687Z,96.05
2018-12-05T09:17:25.000Z,95.02
2018-12-05T09:19:54.377Z,93.43
2018-12-05T09:22:23.567Z,95.32
2018-12-05T09:24:53.156Z,94.75
2018-12-05T09:27:22.303Z,95.49
2018-12-05T09:29:51.551Z,95.10
2018-12-05T09:32:21.672Z,95.68
2018-12-05T09:34:50.835Z,96.33
2018-12-05T09:37:20.044Z,96.00
2018-12-05T09:39:49.164Z,95.00
2018-12-05T09:42:18.341Z,95.17
2018-12-05T09:44:47.660Z,95.53
2018-12-05T09:47:16.928Z,94.83
2018-12-05T09:49:46.117Z,94.98
2018-12-05T09:52:15.725Z,95.26
2018-12-05T09:54:44.872Z,94.65
2018-12-05T09:57:14.156Z,93.17
2018-12-05T09:59:43.616Z,91.26
2018-12-05T10:02:12.740Z,87.83
2018-12-05T10:04:41.860Z,87.21
2018-12-05T10:07:11.000Z,87.28
2018-12-05T10:09:40.147Z,87.40
2018-12-05T10:12:09.343Z,88.68
2018-12-05T10:14:38.581Z,85.61
2018-12-05T10:17:07.913Z,84.27
2018-12-05T10:19:37.073Z,83.70
2018-12-05T10:22:06.307Z,85.48
2018-12-05T10:24:35.587Z,84.74
2018-12-05T10:27:04.729Z,84.30
2018-12-05T10:29:33.915Z,85.80
2018-12-05T10:32:03.086Z,86.31
2018-12-05T10:34:32.305Z,85.01
2018-12-05T10:37:01.470Z,85.36
2018-12-05T10:39:30.701Z,84.77
2018-12-05T10:41:59.923Z,84.52
2018-12-05T10:44:29.190Z,84.04
2018-12-05T10:46:58.463Z,83.98
2018-12-05T10:49:27.604Z,83.81
2018-12-05T10:51:56.820Z,82.51
2018-12-05T10:54:26.083Z,83.45
2018-12-05T10:56:55.420Z,84.15
2018-12-05T10:59:24.749Z,82.56
2018-12-05T11:01:59.025Z,82.91
2018-12-05T11:04:34.088Z,80.19
2018-12-05T11:07:08.820Z,80.94
2018-12-05T11:09:43.627Z,80.94
2018-12-05T11:12:18.564Z,81.47
2018-12-05T11:16:56.432Z,82.24
2018-12-05T11:19:30.936Z,82.96
2018-12-05T11:24:11.257Z,82.61
2018-12-05T11:26:40.777Z,85.89
2018-12-05T11:29:12.344Z,86.63
2018-12-05T11:31:41.581Z,84.85
2018-12-05T11:34:11.223Z,85.05
2018-12-05T11:36:40.536Z,83.61
2018-12-05T11:39:09.832Z,84.40
2018-12-05T11:41:39.065Z,85.25
2018-12-05T11:44:08.240Z,83.42
2018-12-05T11:46:37.769Z,82.15
2018-12-05T11:49:07.419Z,80.55
2018-12-05T11:51:36.635Z,82.73
2018-12-05T11:54:05.957Z,83.44
2018-12-05T11:56:35.109Z,83.08
2018-12-05T11:59:04.367Z,82.35
2018-12-05T12:01:33.781Z,83.90
2018-12-05T12:04:03.039Z,85.25
2018-12-05T12:06:32.856Z,83.17
2018-12-05T12:09:02.223Z,83.33
2018-12-05T12:11:31.514Z,83.06
2018-12-05T12:14:00.799Z,83.90
2018-12-05T12:16:30.028Z,85.09
2018-12-05T12:18:59.598Z,87.02
2018-12-05T12:21:28.779Z,88.38
2018-12-05T12:23:57.927Z,87.15
2018-12-05T12:26:33.194Z,88.89
2018-12-05T12:28:58.372Z,89.05
2018-12-05T12:31:27.516Z,90.01
2018-12-05T12:33:56.753Z,90.87
2018-12-05T12:36:26.029Z,89.69
2018-12-05T12:38:55.248Z,91.12
2018-12-05T12:41:24.393Z,90.91
2018-12-05T12:43:53.596Z,91.47
2018-12-05T12:46:22.788Z,91.27
2018-12-05T12:48:52.016Z,92.52
2018-12-05T12:51:21.267Z,92.69
2018-12-05T12:53:51.685Z,92.81
2018-12-05T12:56:20.948Z,92.54
2018-12-05T12:58:50.164Z,93.32
2018-12-05T13:01:19.293Z,93.51
2018-12-05T13:03:48.432Z,94.12
2018-12-05T13:06:17.569Z,94.76
2018-12-05T13:08:46.751Z,94.30
2018-12-05T13:11:15.973Z,94.09
2018-12-05T13:13:45.217Z,95.26
2018-12-05T13:16:14.522Z,95.12
2018-12-05T13:18:43.748Z,95.50
2018-12-05T13:21:12.965Z,95.90
2018-12-05T13:23:42.156Z,96.21
2018-12-05T13:26:11.450Z,96.78
2018-12-05T13:28:40.990Z,97.44
2018-12-05T13:31:10.264Z,97.22
2018-12-05T13:33:39.422Z,97.58
2018-12-05T13:36:08.608Z,96.34
2018-12-05T13:38:37.928Z,96.33
2018-12-05T13:41:07.244Z,95.44
2018-12-05T13:43:36.358Z,95.28
2018-12-05T13:46:05.694Z,95.56
2018-12-05T13:48:35.741Z,94.99
2018-12-05T13:51:05.161Z,94.98
2018-12-05T13:53:34.360Z,95.35
2018-12-05T13:56:03.591Z,94.65
2018-12-05T13:58:33.632Z,94.64
2018-12-05T14:01:02.776Z,95.18
2018-12-05T14:03:31.945Z,95.02
2018-12-05T14:06:01.187Z,96.11
2018-12-05T14:08:30.360Z,95.82
2018-12-05T14:10:59.539Z,96.26
2018-12-05T14:13:29.274Z,96.26
2018-12-05T14:15:58.602Z,96.03
2018-12-05T14:18:27.822Z,96.77
2018-12-05T14:20:57.085Z,97.12
2018-12-05T14:23:26.433Z,97.62
2018-12-05T14:25:55.957Z,97.32
2018-12-05T14:28:25.192Z,97.82
2018-12-05T14:30:54.425Z,97.04
2018-12-05T14:33:24.066Z,96.74
2018-12-05T14:35:53.224Z,97.23
2018-12-05T14:38:22.400Z,96.75
2018-12-05T14:40:51.648Z,96.82
2018-12-05T14:43:21.464Z,96.29
2018-12-05T14:45:50.613Z,96.15
2018-12-05T14:48:20.008Z,96.36
2018-12-05T14:50:49.512Z,96.51
2018-12-05T14:53:20.240Z,96.49
2018-12-05T14:55:49.436Z,96.56
2018-12-05T14:58:18.580Z,96.79
2018-12-05T15:00:47.716Z,97.83
2018-12-05T15:03:17.200Z,97.93
2018-12-05T15:05:46.403Z,98.37
2018-12-05T15:08:15.545Z,99.34
2018-12-05T15:10:45.681Z,99.99
2018-12-05T15:13:14.884Z,100.00
2018-12-05T15:15:44.040Z,100.00
2018-12-05T15:18:13.288Z,100.00
2018-12-05T15:20:42.411Z,100.00
2018-12-05T15:23:11.861Z,100.00
2018-12-05T15:25:40.999Z,100.00
2018-12-05T15:28:10.320Z,100.00
2018-12-05T15:30:39.968Z,100.00
2018-12-05T15:33:09.300Z,100.00
2018-12-05T15:35:38.535Z,100.00
2018-12-05T15:38:07.905Z,100.00
2018-12-05T15:40:37.072Z,100.00
2018-12-05T15:43:06.582Z,100.00
2018-12-05T15:45:35.807Z,100.00
2018-12-05T15:48:05.148Z,100.00
2018-12-05T15:50:34.407Z,100.00
2018-12-05T15:53:03.561Z,100.00
2018-12-05T15:55:36.768Z,100.00
2018-12-05T15:58:06.012Z,100.00
2018-12-05T16:00:35.720Z,100.00
2018-12-05T16:03:05.173Z,100.00
2018-12-05T16:05:34.335Z,100.00
2018-12-05T16:08:03.916Z,100.00
2018-12-05T16:10:34.288Z,100.00
2018-12-05T16:13:05.190Z,100.00
2018-12-05T16:15:34.856Z,100.00
2018-12-05T16:18:04.137Z,100.00
2018-12-05T16:20:33.356Z,100.00
2018-12-05T16:23:02.809Z,100.00
2018-12-05T16:25:32.072Z,100.00
2018-12-05T16:28:01.272Z,100.00
2018-12-05T16:30:30.414Z,100.00
2018-12-05T16:32:59.716Z,100.00
2018-12-05T16:35:28.876Z,100.00
2018-12-05T16:37:58.235Z,100.00
2018-12-05T16:40:27.400Z,100.00
2018-12-05T16:42:56.945Z,100.00
2018-12-05T16:45:26.270Z,100.00
2018-12-05T16:47:55.533Z,100.00
2018-12-05T16:50:24.780Z,100.00
2018-12-05T16:52:54.015Z,100.00
2018-12-05T16:55:23.194Z,100.00
2018-12-05T16:57:52.353Z,100.00
2018-12-05T17:00:21.584Z,100.00
2018-12-05T17:02:50.788Z,100.00
2018-12-05T17:05:20.333Z,100.00
2018-12-05T17:07:49.764Z,100.00
2018-12-05T17:10:18.996Z,100.00
2018-12-05T17:12:48.239Z,100.00
2018-12-05T17:15:17.543Z,100.00
2018-12-05T17:17:46.769Z,100.00
2018-12-05T17:20:15.901Z,100.00
2018-12-05T17:22:45.092Z,100.00
2018-12-05T17:25:14.396Z,100.00
2018-12-05T17:27:43.636Z,100.00
2018-12-05T17:30:12.942Z,100.00
2018-12-05T17:32:42.317Z,100.00
2018-12-05T17:35:11.477Z,100.00
2018-12-05T17:37:41.220Z,100.00
2018-12-05T17:40:10.808Z,100.00
2018-12-05T17:42:39.977Z,100.00
2018-12-05T17:45:09.534Z,100.00
2018-12-05T17:47:38.848Z,100.00
2018-12-05T17:50:08.174Z,100.00
2018-12-05T17:52:37.391Z,100.00
2018-12-05T17:55:07.406Z,100.00
2018-12-05T17:57:36.797Z,100.00
2018-12-05T18:00:07.340Z,100.00
2018-12-05T18:02:36.951Z,100.00
2018-12-05T18:05:09.213Z,100.00
2018-12-05T18:07:38.397Z,100.00
2018-12-05T18:10:07.866Z,100.00
2018-12-05T18:12:37.008Z,100.00
2018-12-05T18:15:06.448Z,100.00
2018-12-05T18:17:36.409Z,100.00
2018-12-05T18:20:09.664Z,100.00
2018-12-05T18:22:39.180Z,100.00
2018-12-05T18:25:09.608Z,100.00
2018-12-05T18:27:38.975Z,100.00
2018-12-05T18:30:10.181Z,100.00
2018-12-05T18:32:39.372Z,100.00
2018-12-05T18:35:08.724Z,100.00
2018-12-05T18:37:37.996Z,100.00
2018-12-05T18:40:07.754Z,100.00
2018-12-05T18:42:37.028Z,100.00
2018-12-05T18:45:08.000Z,100.00
2018-12-05T18:47:37.756Z,100.00
2018-12-05T18:50:08.347Z,100.00
2018-12-05T18:52:37.640Z,100.00
2018-12-05T18:55:07.012Z,100.00
2018-12-05T18:57:36.232Z,100.00
2018-12-05T19:00:08.929Z,100.00
2018-12-05T19:02:38.132Z,100.00
2018-12-05T19:05:08.885Z,100.00
2018-12-05T19:07:38.037Z,100.00
2018-12-05T19:10:07.577Z,100.00
2018-12-05T19:12:36.850Z,100.00
2018-12-05T19:15:07.436Z,100.00
2018-12-05T19:17:36.595Z,100.00
2018-12-05T19:20:07.095Z,100.00
2018-12-05T19:22:36.264Z,100.00
2018-12-05T19:25:06.681Z,100.00
2018-12-05T19:27:37.365Z,100.00
2018-12-05T19:30:08.893Z,100.00
2018-12-05T19:32:38.036Z,100.00
2018-12-05T19:35:07.901Z,100.00
2018-12-05T19:37:37.308Z,100.00
2018-12-05T19:40:07.022Z,100.00
2018-12-05T19:42:36.160Z,100.00
2018-12-05T19:45:07.320Z,100.00
2018-12-05T19:47:36.631Z,100.00
2018-12-05T19:50:07.640Z,100.00
2018-12-05T19:52:37.863Z,100.00
2018-12-05T19:55:07.309Z,100.00
2018-12-05T19:57:36.460Z,100.00
2018-12-05T20:00:08.733Z,100.00
2018-12-05T20:02:37.874Z,100.00
2018-12-05T20:05:07.280Z,100.00
2018-12-05T20:07:37.052Z,100.00
2018-12-05T20:10:07.220Z,100.00
2018-12-05T20:12:36.581Z,100.00
2018-12-05T20:15:06.056Z,100.00
2018-12-05T20:17:35.216Z,100.00
2018-12-05T20:20:05.796Z,100.00
2018-12-05T20:22:35.385Z,100.00
2018-12-05T20:25:04.683Z,100.00
2018-12-05T20:27:34.583Z,100.00
2018-12-05T20:30:04.143Z,100.00
2018-12-05T20:32:33.380Z,100.00
2018-12-05T20:35:03.544Z,100.00
2018-12-05T20:37:33.561Z,100.00
2018-12-05T20:40:02.816Z,100.00
2018-12-05T20:42:32.125Z,100.00
2018-12-05T20:45:02.816Z,100.00
2018-12-05T20:47:32.197Z,100.00
2018-12-05T20:50:01.350Z,100.00
2018-12-05T20:52:30.504Z,100.00
2018-12-05T20:55:00.037Z,100.00
2018-12-05T20:57:29.178Z,100.00
2018-12-05T20:59:58.413Z,100.00
2018-12-05T21:02:27.618Z,100.00
2018-12-05T21:04:56.773Z,100.00
2018-12-05T21:07:26.764Z,100.00
2018-12-05T21:09:55.975Z,100.00
2018-12-05T21:12:25.196Z,100.00
2018-12-05T21:14:54.639Z,100.00
2018-12-05T21:17:25.572Z,100.00
2018-12-05T21:19:55.223Z,100.00
2018-12-05T21:22:24.552Z,100.00
2018-12-05T21:24:53.748Z,100.00
2018-12-05T21:27:23.134Z,100.00
2018-12-05T21:29:52.352Z,100.00
2018-12-05T21:32:21.808Z,100.00
2018-12-05T21:34:51.561Z,100.00
2018-12-05T21:37:20.996Z,100.00
2018-12-05T21:39:50.483Z,100.00
2018-12-05T21:42:21.939Z,100.00
2018-12-05T21:44:51.128Z,100.00
2018-12-05T21:47:20.478Z,100.00
2018-12-05T21:49:49.975Z,100.00
2018-12-05T21:52:19.150Z,100.00
2018-12-05T21:54:48.895Z,100.00
2018-12-05T21:57:18.036Z,100.00
2018-12-05T21:59:47.776Z,100.00
2018-12-05T22:02:17.005Z,100.00
2018-12-05T22:04:46.284Z,100.00
2018-12-05T22:07:15.686Z,100.00
2018-12-05T22:09:44.869Z,100.00
2018-12-05T22:12:14.023Z,100.00
2018-12-05T22:14:43.260Z,100.00
2018-12-05T22:17:12.648Z,100.00
2018-12-05T22:19:42.044Z,100.00
2018-12-05T22:22:11.703Z,100.00
2018-12-05T22:24:41.364Z,100.00
2018-12-05T22:27:10.637Z,100.00
2018-12-05T22:29:39.846Z,100.00
2018-12-05T22:32:09.493Z,100.00
2018-12-05T22:34:39.148Z,100.00
2018-12-05T22:37:08.498Z,100.00
2018-12-05T22:39:37.828Z,100.00
2018-12-05T22:42:07.160Z,100.00
2018-12-05T22:44:36.314Z,100.00
2018-12-05T22:47:05.582Z,100.00
2018-12-05T22:49:34.917Z,100.00
2018-12-05T22:52:04.081Z,100.00
2018-12-05T22:54:33.742Z,100.00
2018-12-05T22:57:20.665Z,100.00
2018-12-05T22:59:49.928Z,100.00
2018-12-05T23:02:19.240Z,100.00
2018-12-05T23:04:48.416Z,100.00
2018-12-05T23:07:17.936Z,100.00
2018-12-05T23:09:47.736Z,100.00
2018-12-05T23:12:16.993Z,100.00
2018-12-05T23:14:46.386Z,100.00
2018-12-05T23:17:15.959Z,100.00
2018-12-05T23:19:49.220Z,100.00
2018-12-05T23:22:18.415Z,100.00
2018-12-05T23:24:47.691Z,100.00
2018-12-05T23:27:17.374Z,100.00
2018-12-05T23:29:46.592Z,100.00
2018-12-05T23:32:15.975Z,100.00
2018-12-05T23:34:45.199Z,100.00
2018-12-05T23:37:14.565Z,100.00
2018-12-05T23:39:46.627Z,100.00
2018-12-05T23:42:15.957Z,100.00
2018-12-05T23:44:45.185Z,100.00
2018-12-05T23:47:14.420Z,100.00
2018-12-05T23:49:43.671Z,100.00
2018-12-05T23:52:12.859Z,100.00
2018-12-05T23:54:42.307Z,100.00
2018-12-05T23:57:11.568Z,100.00
2018-12-05T23:59:41.236Z,100.00
